createdAt,value
2022-10-18T00:00:06.795Z,7.45
2022-10-18T00:02:33.889Z,7.55
2022-10-18T00:05:00.856Z,9.07
2022-10-18T00:07:27.497Z,8.52
2022-10-18T00:09:54.183Z,8.60
2022-10-18T00:12:20.912Z,8.50
2022-10-18T00:14:50.916Z,8.48
2022-10-18T00:17:17.728Z,9.20
2022-10-18T00:19:44.482Z,8.95
2022-10-18T00:22:11.078Z,8.80
2022-10-18T00:24:37.680Z,9.25
2022-10-18T00:27:04.352Z,9.77
2022-10-18T00:29:31.383Z,8.93
2022-10-18T00:31:57.955Z,8.40
2022-10-18T00:34:24.691Z,9.95
2022-10-18T00:36:51.320Z,9.27
2022-10-18T00:39:20.261Z,9.07
2022-10-18T00:41:47.729Z,9.85
2022-10-18T00:44:14.308Z,9.57
2022-10-18T00:46:43.778Z,9.93
2022-10-18T00:49:21.817Z,9.23
2022-10-18T00:51:52.521Z,9.23
2022-10-18T00:54:20.878Z,10.25
2022-10-18T00:56:47.516Z,9.52
2022-10-18T00:59:16.317Z,9.48
2022-10-18T01:01:43.291Z,9.02
2022-10-18T01:04:10.021Z,9.27
2022-10-18T01:07:02.581Z,9.40
2022-10-18T01:09:38.929Z,9.73
2022-10-18T01:12:30.534Z,9.80
2022-10-18T01:15:10.651Z,9.98
2022-10-18T01:17:46.735Z,10.13
2022-10-18T01:22:45.330Z,9.52
2022-10-18T01:25:34.451Z,9.07
2022-10-18T01:28:15.878Z,10.02
2022-10-18T01:31:12.214Z,9.00
2022-10-18T01:33:51.275Z,9.30
2022-10-18T01:36:23.670Z,8.93
2022-10-18T01:38:53.582Z,9.05
2022-10-18T01:41:24.022Z,10.57
2022-10-18T01:43:54.582Z,11.27
2022-10-18T01:46:24.105Z,9.10
2022-10-18T01:48:52.710Z,10.13
2022-10-18T01:51:31.635Z,9.02
2022-10-18T01:53:58.663Z,9.75
2022-10-18T01:56:50.823Z,10.13
2022-10-18T01:59:55.683Z,9.88
2022-10-18T02:02:47.157Z,10.32
2022-10-18T02:05:19.420Z,9.60
2022-10-18T02:08:23.397Z,9.75
2022-10-18T02:11:12.546Z,10.15
2022-10-18T02:13:44.584Z,9.80
2022-10-18T02:16:16.576Z,10.02
2022-10-18T02:18:52.067Z,9.43
2022-10-18T02:21:20.611Z,9.55
2022-10-18T02:23:47.460Z,10.35
2022-10-18T02:26:15.986Z,10.48
2022-10-18T02:28:43.212Z,10.32
2022-10-18T02:31:12.920Z,10.20
2022-10-18T02:33:53.348Z,9.63
2022-10-18T02:36:34.981Z,10.40
2022-10-18T02:39:11.789Z,9.82
2022-10-18T02:41:38.555Z,10.20
2022-10-18T02:44:05.150Z,9.43
2022-10-18T02:46:31.909Z,10.02
2022-10-18T02:48:58.483Z,9.35
2022-10-18T02:51:25.357Z,9.43
2022-10-18T02:53:51.972Z,9.32
2022-10-18T02:56:18.744Z,9.98
2022-10-18T02:58:45.340Z,9.15
2022-10-18T03:01:11.945Z,9.43
2022-10-18T03:03:38.611Z,9.57
2022-10-18T03:06:05.871Z,9.15
2022-10-18T03:08:32.464Z,9.90
2022-10-18T03:10:59.037Z,8.60
2022-10-18T03:13:25.671Z,9.02
2022-10-18T03:15:52.263Z,9.48
2022-10-18T03:18:18.878Z,9.98
2022-10-18T03:20:45.471Z,9.70
2022-10-18T03:23:12.118Z,9.02
2022-10-18T03:25:40.554Z,8.85
2022-10-18T03:28:09.474Z,9.40
2022-10-18T03:30:36.061Z,9.60
2022-10-18T03:33:02.614Z,9.45
2022-10-18T03:35:29.219Z,9.68
2022-10-18T03:37:55.803Z,10.85
2022-10-18T03:40:22.723Z,9.85
2022-10-18T03:42:49.309Z,9.82
2022-10-18T03:45:15.922Z,9.80
2022-10-18T03:47:42.483Z,10.23
2022-10-18T03:50:09.367Z,10.00
2022-10-18T03:52:36.065Z,10.20
2022-10-18T03:55:05.193Z,10.70
2022-10-18T03:57:31.755Z,9.77
2022-10-18T03:59:58.323Z,9.63
2022-10-18T04:02:25.991Z,12.82
2022-10-18T04:04:52.792Z,10.98
2022-10-18T04:07:20.725Z,10.70
2022-10-18T04:09:48.670Z,13.38
2022-10-18T04:12:15.317Z,21.45
2022-10-18T04:14:41.873Z,24.15
2022-10-18T04:17:08.611Z,29.88
2022-10-18T04:19:35.226Z,32.72
2022-10-18T04:22:01.839Z,30.55
2022-10-18T04:24:29.820Z,27.70
2022-10-18T04:26:56.394Z,18.63
2022-10-18T04:29:24.520Z,20.65
2022-10-18T04:31:51.122Z,18.98
2022-10-18T04:34:17.697Z,22.92
2022-10-18T04:36:45.518Z,18.00
2022-10-18T04:39:12.196Z,16.85
2022-10-18T04:41:38.925Z,15.85
2022-10-18T04:44:05.685Z,14.05
2022-10-18T04:46:32.240Z,12.73
2022-10-18T04:49:01.372Z,12.60
2022-10-18T04:51:29.679Z,13.63
2022-10-18T04:53:56.591Z,12.80
2022-10-18T04:56:23.350Z,13.45
2022-10-18T04:58:50.003Z,14.45
2022-10-18T05:01:17.491Z,12.98
2022-10-18T05:03:44.221Z,13.25
2022-10-18T05:06:11.197Z,13.13
2022-10-18T05:08:38.670Z,13.40
2022-10-18T05:11:05.464Z,12.32
2022-10-18T05:13:32.120Z,13.77
2022-10-18T05:16:00.329Z,13.10
2022-10-18T05:18:27.528Z,13.70
2022-10-18T05:20:54.123Z,12.50
2022-10-18T05:23:20.819Z,12.77
2022-10-18T05:25:47.575Z,13.70
2022-10-18T05:28:38.861Z,13.57
2022-10-18T05:31:02.836Z,12.88
2022-10-18T05:33:29.873Z,14.02
2022-10-18T05:35:56.932Z,13.32
2022-10-18T05:38:23.631Z,13.02
2022-10-18T05:40:50.335Z,15.30
2022-10-18T05:43:17.953Z,12.77
2022-10-18T05:45:49.536Z,13.02
2022-10-18T05:48:16.175Z,12.40
2022-10-18T05:50:43.218Z,12.75
2022-10-18T05:53:12.368Z,12.82
2022-10-18T05:55:45.124Z,12.57
2022-10-18T05:58:11.759Z,11.80
2022-10-18T06:00:38.801Z,11.60
2022-10-18T06:03:05.512Z,11.10
2022-10-18T06:05:32.172Z,11.57
2022-10-18T06:07:58.867Z,12.38
2022-10-18T06:10:25.755Z,12.02
2022-10-18T06:12:52.417Z,12.23
2022-10-18T06:15:19.068Z,12.15
2022-10-18T06:17:45.687Z,12.80
2022-10-18T06:20:12.330Z,12.25
2022-10-18T06:22:38.962Z,12.30
2022-10-18T06:25:06.096Z,12.30
2022-10-18T06:27:35.307Z,12.35
2022-10-18T06:30:02.152Z,11.65
2022-10-18T06:32:28.877Z,12.38
2022-10-18T06:34:55.494Z,12.80
2022-10-18T06:37:22.165Z,12.63
2022-10-18T06:39:48.753Z,12.43
2022-10-18T06:42:19.075Z,12.07
2022-10-18T06:44:48.454Z,11.95
2022-10-18T06:47:15.086Z,11.82
2022-10-18T06:49:41.716Z,11.65
2022-10-18T06:52:08.450Z,11.43
2022-10-18T06:54:35.170Z,11.32
2022-10-18T06:57:02.814Z,11.38
2022-10-18T06:59:31.301Z,11.10
2022-10-18T07:01:58.349Z,10.52
2022-10-18T07:04:29.485Z,11.85
2022-10-18T07:06:56.207Z,10.90
2022-10-18T07:09:23.008Z,10.70
2022-10-18T07:11:49.649Z,10.73
2022-10-18T07:14:16.627Z,10.60
2022-10-18T07:16:43.257Z,10.57
2022-10-18T07:19:09.902Z,10.23
2022-10-18T07:21:36.682Z,10.63
2022-10-18T07:24:03.379Z,11.90
2022-10-18T07:26:34.353Z,11.52
2022-10-18T07:29:10.782Z,11.68
2022-10-18T07:31:38.861Z,10.30
2022-10-18T07:34:06.404Z,10.35
2022-10-18T07:36:33.239Z,11.40
2022-10-18T07:38:59.908Z,10.35
2022-10-18T07:41:26.817Z,10.73
2022-10-18T07:43:54.354Z,11.55
2022-10-18T07:46:22.387Z,10.77
2022-10-18T07:48:49.875Z,11.18
2022-10-18T07:51:17.258Z,10.63
2022-10-18T07:53:43.888Z,10.20
2022-10-18T07:56:18.223Z,9.38
2022-10-18T07:58:46.086Z,9.65
2022-10-18T08:01:14.025Z,9.07
2022-10-18T08:03:42.026Z,9.10
2022-10-18T08:06:11.321Z,8.82
2022-10-18T08:08:39.393Z,9.85
2022-10-18T08:11:18.599Z,8.77
2022-10-18T08:13:45.461Z,8.45
2022-10-18T08:16:17.936Z,8.45
2022-10-18T08:18:44.805Z,8.00
2022-10-18T08:21:13.683Z,8.02
2022-10-18T08:23:41.205Z,7.68
2022-10-18T08:26:12.923Z,7.60
2022-10-18T08:28:40.483Z,8.10
2022-10-18T08:31:14.539Z,7.50
2022-10-18T08:33:41.195Z,7.47
2022-10-18T08:36:10.678Z,7.45
2022-10-18T08:38:39.174Z,7.47
2022-10-18T08:41:27.009Z,7.53
2022-10-18T08:44:13.893Z,8.07
2022-10-18T08:46:45.798Z,7.25
2022-10-18T08:49:24.130Z,7.65
2022-10-18T08:51:51.927Z,7.05
2022-10-18T08:54:37.373Z,7.18
2022-10-18T08:57:14.971Z,7.32
2022-10-18T08:59:42.194Z,7.63
2022-10-18T09:02:53.261Z,7.13
2022-10-18T09:05:39.978Z,7.68
2022-10-18T09:08:39.290Z,7.30
2022-10-18T09:11:27.554Z,7.10
2022-10-18T09:14:32.468Z,7.20
2022-10-18T09:17:16.237Z,7.90
2022-10-18T09:22:42.193Z,8.05
2022-10-18T09:25:19.624Z,7.10
2022-10-18T09:28:23.871Z,8.35
2022-10-18T09:31:03.393Z,7.60
2022-10-18T09:33:46.877Z,7.55
2022-10-18T09:36:21.875Z,8.05
2022-10-18T09:38:52.723Z,7.63
2022-10-18T09:41:30.331Z,7.57
2022-10-18T09:44:03.708Z,8.02
2022-10-18T09:46:39.254Z,7.97
2022-10-18T09:51:45.609Z,7.88
2022-10-18T09:55:05.500Z,7.68
2022-10-18T09:57:52.508Z,7.88
2022-10-18T10:00:25.802Z,7.85
2022-10-18T10:02:53.549Z,7.35
2022-10-18T10:05:20.488Z,7.13
2022-10-18T10:07:49.274Z,8.00
2022-10-18T10:10:25.404Z,7.28
2022-10-18T10:13:22.996Z,8.77
2022-10-18T10:16:08.460Z,7.85
2022-10-18T10:18:39.090Z,8.40
2022-10-18T10:21:13.149Z,7.30
2022-10-18T10:23:47.001Z,7.40
2022-10-18T10:26:24.683Z,7.97
2022-10-18T10:28:51.895Z,7.78
2022-10-18T10:31:24.132Z,7.85
2022-10-18T10:34:12.623Z,8.50
2022-10-18T10:36:48.890Z,8.25
2022-10-18T10:39:19.036Z,8.25
2022-10-18T10:41:51.974Z,7.82
2022-10-18T10:44:24.530Z,7.93
2022-10-18T10:46:52.159Z,8.20
2022-10-18T10:52:27.345Z,8.05
2022-10-18T10:55:05.690Z,8.38
2022-10-18T10:57:38.740Z,8.85
2022-10-18T11:00:05.749Z,8.13
2022-10-18T11:02:34.980Z,9.05
2022-10-18T11:05:20.501Z,8.20
2022-10-18T11:07:47.684Z,8.73
2022-10-18T11:10:19.684Z,8.43
2022-10-18T11:12:56.336Z,8.05
2022-10-18T11:15:36.960Z,8.30
2022-10-18T11:18:18.596Z,8.52
2022-10-18T11:20:50.977Z,7.82
2022-10-18T11:23:18.501Z,8.40
2022-10-18T11:26:08.694Z,8.10
2022-10-18T11:29:12.675Z,8.23
2022-10-18T11:32:08.181Z,8.02
2022-10-18T11:34:49.662Z,7.88
2022-10-18T11:37:34.724Z,8.43
2022-10-18T11:40:28.635Z,7.80
2022-10-18T11:43:57.133Z,7.97
2022-10-18T11:46:33.966Z,7.80
2022-10-18T11:49:28.730Z,7.28
2022-10-18T11:52:18.604Z,7.88
2022-10-18T11:55:10.091Z,8.25
2022-10-18T11:58:20.366Z,8.35
2022-10-18T12:00:56.438Z,7.75
2022-10-18T12:03:33.869Z,8.90
2022-10-18T12:06:06.606Z,8.15
2022-10-18T12:08:44.946Z,8.00
2022-10-18T12:11:47.167Z,8.35
2022-10-18T12:14:24.277Z,8.18
2022-10-18T12:17:07.798Z,7.95
2022-10-18T12:19:40.564Z,7.22
2022-10-18T12:22:28.412Z,8.32
2022-10-18T12:24:54.982Z,7.65
2022-10-18T12:27:40.471Z,7.50
2022-10-18T12:30:15.729Z,7.90
2022-10-18T12:32:56.394Z,8.18
2022-10-18T12:35:35.212Z,7.93
2022-10-18T12:38:12.403Z,8.00
2022-10-18T12:40:43.551Z,7.80
2022-10-18T12:43:18.266Z,7.57
2022-10-18T12:45:54.911Z,7.93
2022-10-18T12:48:42.776Z,7.90
2022-10-18T12:51:18.910Z,7.75
2022-10-18T12:53:49.148Z,8.20
2022-10-18T12:56:27.927Z,8.27
2022-10-18T12:59:16.262Z,8.35
2022-10-18T13:01:54.845Z,8.63
2022-10-18T13:04:39.832Z,8.55
2022-10-18T13:07:08.054Z,8.43
2022-10-18T13:09:44.626Z,8.65
2022-10-18T13:12:11.184Z,7.93
2022-10-18T13:15:12.749Z,7.70
2022-10-18T13:18:05.118Z,8.48
2022-10-18T13:20:44.177Z,7.95
2022-10-18T13:23:42.615Z,8.02
2022-10-18T13:26:40.069Z,8.38
2022-10-18T13:29:24.715Z,8.13
2022-10-18T13:31:55.581Z,8.48
2022-10-18T13:34:25.218Z,8.07
2022-10-18T13:37:01.236Z,8.43
2022-10-18T13:39:29.227Z,7.60
2022-10-18T13:41:59.962Z,8.38
2022-10-18T13:44:40.456Z,7.88
2022-10-18T13:47:07.172Z,7.75
2022-10-18T13:49:39.713Z,8.57
2022-10-18T13:52:15.022Z,7.22
2022-10-18T13:55:19.831Z,7.68
2022-10-18T13:58:02.943Z,8.35
2022-10-18T14:00:54.180Z,8.13
2022-10-18T14:03:55.729Z,8.48
2022-10-18T14:06:38.839Z,8.25
2022-10-18T14:09:25.477Z,8.10
2022-10-18T14:12:14.671Z,9.20
2022-10-18T14:14:45.519Z,9.63
2022-10-18T14:17:35.474Z,9.23
2022-10-18T14:20:15.146Z,9.68
2022-10-18T14:23:02.762Z,11.27
2022-10-18T14:25:33.189Z,11.75
2022-10-18T14:28:14.655Z,10.30
2022-10-18T14:31:06.577Z,11.32
2022-10-18T14:33:33.166Z,9.55
2022-10-18T14:36:06.715Z,7.95
2022-10-18T14:38:44.580Z,6.03
2022-10-18T14:41:37.679Z,7.25
2022-10-18T14:44:16.480Z,7.40
2022-10-18T14:46:43.928Z,7.20
2022-10-18T14:49:12.558Z,6.70
2022-10-18T14:51:42.535Z,6.68
2022-10-18T14:54:18.659Z,6.75
2022-10-18T14:56:49.090Z,4.90
2022-10-18T14:59:27.806Z,3.97
2022-10-18T15:02:03.266Z,3.92
2022-10-18T15:04:33.432Z,3.40
2022-10-18T15:07:05.646Z,3.60
2022-10-18T15:09:34.895Z,3.55
2022-10-18T15:12:05.806Z,3.95
2022-10-18T15:14:32.992Z,4.57
2022-10-18T15:17:03.755Z,4.22
2022-10-18T15:19:33.789Z,4.82
2022-10-18T15:22:30.691Z,4.47
2022-10-18T15:25:19.979Z,3.30
2022-10-18T15:27:49.443Z,3.35
2022-10-18T15:30:36.332Z,3.53
2022-10-18T15:33:05.393Z,3.40
2022-10-18T15:35:34.858Z,3.20
2022-10-18T15:38:26.030Z,3.55
2022-10-18T15:40:53.585Z,3.83
2022-10-18T15:43:23.425Z,3.33
2022-10-18T15:46:06.524Z,3.63
2022-10-18T15:48:39.173Z,3.58
2022-10-18T15:51:32.433Z,3.92
2022-10-18T15:53:59.102Z,3.92
2022-10-18T15:56:37.470Z,4.28
2022-10-18T15:59:21.007Z,4.57
2022-10-18T16:01:47.893Z,4.70
2022-10-18T16:04:26.709Z,4.18
2022-10-18T16:06:55.584Z,4.13
2022-10-18T16:09:27.231Z,4.47
2022-10-18T16:11:56.984Z,3.97
2022-10-18T16:14:26.017Z,3.55
2022-10-18T16:16:56.878Z,3.78
2022-10-18T16:19:23.517Z,3.75
2022-10-18T16:21:52.654Z,3.90
2022-10-18T16:24:21.427Z,4.05
2022-10-18T16:26:48.930Z,4.35
2022-10-18T16:29:24.469Z,4.05
2022-10-18T16:31:53.624Z,4.20
2022-10-18T16:34:20.311Z,4.47
2022-10-18T16:36:46.941Z,3.88
2022-10-18T16:39:18.691Z,4.68
2022-10-18T16:41:45.861Z,5.45
2022-10-18T16:44:14.219Z,5.00
2022-10-18T16:46:42.332Z,5.03
2022-10-18T16:51:46.793Z,4.57
2022-10-18T16:54:13.489Z,4.90
2022-10-18T16:56:40.733Z,4.97
2022-10-18T16:59:27.259Z,4.78
2022-10-18T17:09:16.192Z,4.47
2022-10-18T17:11:43.225Z,4.75
2022-10-18T17:14:10.179Z,4.90
2022-10-18T17:16:39.083Z,4.78
2022-10-18T17:19:08.151Z,4.57
2022-10-18T17:21:36.201Z,4.55
2022-10-18T17:24:04.514Z,4.68
2022-10-18T17:26:31.343Z,4.70
2022-10-18T17:29:03.159Z,4.68
2022-10-18T17:31:31.412Z,5.28
2022-10-18T17:34:01.237Z,4.63
2022-10-18T17:36:28.720Z,4.38
2022-10-18T17:38:55.498Z,4.45
2022-10-18T17:41:23.734Z,5.05
2022-10-18T17:43:50.434Z,5.53
2022-10-18T17:46:19.163Z,5.68
2022-10-18T17:48:45.955Z,5.72
2022-10-18T17:51:15.113Z,6.38
2022-10-18T17:53:41.814Z,6.70
2022-10-18T17:56:10.191Z,6.85
2022-10-18T17:58:36.868Z,6.25
2022-10-18T18:01:13.979Z,6.40
2022-10-18T18:03:42.184Z,6.32
2022-10-18T18:06:13.761Z,7.15
2022-10-18T18:08:40.376Z,7.38
2022-10-18T18:11:07.310Z,6.82
2022-10-18T18:13:33.966Z,6.80
2022-10-18T18:16:10.833Z,7.70
2022-10-18T18:18:37.634Z,7.25
2022-10-18T18:21:04.291Z,7.20
2022-10-18T18:23:31.092Z,7.25
2022-10-18T18:25:58.333Z,7.85
2022-10-18T18:28:25.002Z,7.68
2022-10-18T18:30:51.717Z,8.05
2022-10-18T18:33:18.343Z,8.18
2022-10-18T18:35:54.653Z,8.82
2022-10-18T18:38:21.281Z,7.97
2022-10-18T18:40:47.874Z,7.95
2022-10-18T18:43:29.166Z,7.72
2022-10-18T18:45:56.104Z,7.75
2022-10-18T18:48:22.734Z,7.95
2022-10-18T18:50:51.325Z,7.47
2022-10-18T18:53:18.949Z,8.35
2022-10-18T18:55:45.772Z,7.15
2022-10-18T18:58:12.644Z,7.38
2022-10-18T19:00:43.429Z,8.30
2022-10-18T19:03:12.348Z,7.68
2022-10-18T19:05:39.174Z,8.13
2022-10-18T19:08:06.359Z,8.57
2022-10-18T19:10:32.989Z,8.10
2022-10-18T19:12:59.877Z,8.57
2022-10-18T19:15:26.644Z,8.45
2022-10-18T19:17:53.256Z,9.00
2022-10-18T19:20:21.188Z,9.25
2022-10-18T19:22:47.767Z,9.43
2022-10-18T19:25:14.486Z,9.57
2022-10-18T19:27:41.123Z,9.93
2022-10-18T19:30:09.474Z,10.45
2022-10-18T19:32:36.366Z,9.27
2022-10-18T19:35:03.610Z,9.63
2022-10-18T19:37:30.290Z,10.18
2022-10-18T19:39:56.970Z,10.95
2022-10-18T19:42:27.550Z,9.93
2022-10-18T19:44:57.218Z,10.15
2022-10-18T19:47:23.837Z,9.68
2022-10-18T19:49:50.432Z,9.93
2022-10-18T19:52:17.112Z,10.25
2022-10-18T19:54:45.099Z,10.13
2022-10-18T19:57:11.850Z,10.23
2022-10-18T20:02:25.892Z,9.77
2022-10-18T20:04:52.473Z,9.32
2022-10-18T20:07:19.060Z,9.60
2022-10-18T20:09:47.309Z,9.73
2022-10-18T20:12:13.905Z,9.60
2022-10-18T20:14:40.479Z,9.80
2022-10-18T20:17:07.174Z,9.38
2022-10-18T20:19:33.864Z,9.20
2022-10-18T20:22:00.468Z,10.18
2022-10-18T20:24:27.238Z,9.10
2022-10-18T20:26:54.033Z,9.00
2022-10-18T20:29:25.237Z,8.68
2022-10-18T20:31:55.561Z,9.10
2022-10-18T20:34:25.963Z,7.55
2022-10-18T20:36:56.024Z,7.30
2022-10-18T20:39:23.017Z,7.65
2022-10-18T20:41:49.966Z,7.95
2022-10-18T20:44:19.443Z,8.23
2022-10-18T20:46:46.178Z,9.05
2022-10-18T20:49:15.235Z,8.27
2022-10-18T20:51:42.210Z,8.50
2022-10-18T20:54:09.712Z,9.35
2022-10-18T20:56:38.804Z,8.13
2022-10-18T20:59:09.726Z,9.75
2022-10-18T21:01:38.773Z,9.20
2022-10-18T21:04:07.553Z,8.55
2022-10-18T21:06:42.882Z,9.35
2022-10-18T21:09:12.838Z,8.95
2022-10-18T21:11:41.516Z,9.52
2022-10-18T21:14:13.391Z,8.98
2022-10-18T21:16:40.503Z,8.77
2022-10-18T21:19:12.958Z,9.20
2022-10-18T21:21:41.563Z,9.52
2022-10-18T21:24:08.426Z,8.65
2022-10-18T21:26:35.766Z,8.95
2022-10-18T21:29:03.165Z,9.48
2022-10-18T21:31:36.416Z,9.45
2022-10-18T21:34:06.129Z,8.95
2022-10-18T21:36:35.685Z,9.48
2022-10-18T21:39:04.595Z,9.93
2022-10-18T21:41:33.916Z,10.32
2022-10-18T21:44:03.517Z,9.32
2022-10-18T21:46:32.962Z,9.98
2022-10-18T21:48:59.604Z,9.50
2022-10-18T21:51:28.525Z,9.82
2022-10-18T21:53:57.809Z,10.10
2022-10-18T21:56:27.149Z,9.85
2022-10-18T21:58:54.568Z,10.38
2022-10-18T22:01:33.969Z,10.05
2022-10-18T22:04:03.324Z,9.65
2022-10-18T22:06:32.857Z,11.05
2022-10-18T22:09:02.269Z,9.68
2022-10-18T22:11:39.731Z,9.55
2022-10-18T22:14:06.852Z,9.80
2022-10-18T22:16:33.810Z,10.32
2022-10-18T22:19:02.232Z,10.95
2022-10-18T22:21:29.579Z,10.38
2022-10-18T22:23:57.773Z,10.70
2022-10-18T22:26:29.617Z,10.40
2022-10-18T22:29:08.195Z,10.98
2022-10-18T22:31:36.850Z,10.00
2022-10-18T22:34:06.423Z,10.43
2022-10-18T22:36:34.480Z,10.35
2022-10-18T22:39:01.603Z,9.93
2022-10-18T22:41:28.550Z,10.32
2022-10-18T22:43:57.300Z,9.35
2022-10-18T22:46:26.560Z,9.88
2022-10-18T22:48:53.483Z,9.50
2022-10-18T22:51:21.335Z,9.23
2022-10-18T22:53:48.152Z,9.13
2022-10-18T22:56:20.868Z,8.82
2022-10-18T22:58:48.334Z,8.40
2022-10-18T23:01:17.889Z,9.23
2022-10-18T23:03:44.661Z,8.80
2022-10-18T23:06:23.976Z,8.52
2022-10-18T23:08:51.487Z,9.05
2022-10-18T23:11:19.053Z,8.45
2022-10-18T23:13:46.131Z,8.20
2022-10-18T23:16:13.282Z,7.90
2022-10-18T23:19:38.907Z,8.25
2022-10-18T23:22:05.633Z,8.23
2022-10-18T23:24:32.229Z,8.20
2022-10-18T23:26:58.947Z,8.90
2022-10-18T23:29:25.617Z,8.80
2022-10-18T23:31:52.285Z,8.02
2022-10-18T23:34:18.845Z,8.48
2022-10-18T23:36:45.435Z,7.97
2022-10-18T23:39:12.147Z,8.13
2022-10-18T23:41:38.764Z,8.07
2022-10-18T23:44:05.578Z,8.38
2022-10-18T23:46:32.242Z,9.05
2022-10-18T23:48:58.844Z,8.18
2022-10-18T23:51:25.449Z,8.88
2022-10-18T23:53:52.105Z,9.30
2022-10-18T23:56:18.847Z,8.32
2022-10-18T23:58:45.550Z,8.65
